createdAt,value
2022-10-08T00:01:02.109Z,100631.53
2022-10-08T00:03:31.609Z,100625.31
2022-10-08T00:06:04.756Z,100633.22
2022-10-08T00:08:34.150Z,100633.22
2022-10-08T00:11:04.048Z,100631.47
2022-10-08T00:13:40.873Z,100623.50
2022-10-08T00:16:26.621Z,100627.91
2022-10-08T00:18:55.574Z,100634.94
2022-10-08T00:21:25.571Z,100631.47
2022-10-08T00:23:53.251Z,100634.94
2022-10-08T00:26:26.630Z,100620.84
2022-10-08T00:28:55.940Z,100628.75
2022-10-08T00:31:43.783Z,100634.94
2022-10-08T00:34:13.194Z,100637.56
2022-10-08T00:36:41.033Z,100639.41
2022-10-08T00:39:13.870Z,100634.19
2022-10-08T00:41:41.398Z,100635.19
2022-10-08T00:45:06.353Z,100629.97
2022-10-08T00:47:32.912Z,100629.19
2022-10-08T00:49:59.511Z,100629.31
2022-10-08T00:52:29.037Z,100618.00
2022-10-08T00:54:57.296Z,100619.84
2022-10-08T00:57:24.332Z,100613.72
2022-10-08T00:59:51.004Z,100607.66
2022-10-08T01:02:19.270Z,100610.38
2022-10-08T01:04:47.278Z,100618.41
2022-10-08T01:07:23.769Z,100622.84
2022-10-08T01:10:03.122Z,100612.38
2022-10-08T01:12:47.243Z,100601.03
2022-10-08T01:15:26.351Z,100595.84
2022-10-08T01:18:01.781Z,100598.53
2022-10-08T01:20:42.468Z,100595.97
2022-10-08T01:23:27.473Z,100598.69
2022-10-08T01:26:18.921Z,100596.91
2022-10-08T01:28:56.381Z,100594.28
2022-10-08T01:31:31.174Z,100600.44
2022-10-08T01:34:03.083Z,100597.84
2022-10-08T01:36:37.074Z,100596.97
2022-10-08T01:39:09.191Z,100590.81
2022-10-08T01:41:35.854Z,100589.09
2022-10-08T01:44:08.859Z,100584.72
2022-10-08T01:46:39.118Z,100597.94
2022-10-08T01:49:11.503Z,100587.41
2022-10-08T01:51:44.152Z,100591.81
2022-10-08T01:54:16.367Z,100591.81
2022-10-08T01:56:47.095Z,100587.44
2022-10-08T01:59:22.967Z,100590.97
2022-10-08T02:01:52.450Z,100589.22
2022-10-08T02:04:37.073Z,100587.53
2022-10-08T02:07:09.240Z,100580.50
2022-10-08T02:09:40.785Z,100587.56
2022-10-08T02:12:08.218Z,100588.47
2022-10-08T02:14:40.195Z,100582.28
2022-10-08T02:17:24.435Z,100582.28
2022-10-08T02:20:14.643Z,100583.19
2022-10-08T02:22:50.000Z,100581.41
2022-10-08T02:25:30.630Z,100583.22
2022-10-08T02:28:21.764Z,100581.41
2022-10-08T02:31:04.706Z,100578.78
2022-10-08T02:33:40.694Z,100582.34
2022-10-08T02:36:10.029Z,100582.34
2022-10-08T02:38:48.904Z,100578.78
2022-10-08T02:41:17.041Z,100581.41
2022-10-08T02:43:47.681Z,100581.38
2022-10-08T02:46:17.813Z,100581.38
2022-10-08T02:48:56.205Z,100571.69
2022-10-08T02:51:24.847Z,100574.25
2022-10-08T02:53:51.517Z,100579.53
2022-10-08T02:56:25.329Z,100574.22
2022-10-08T02:58:52.579Z,100574.19
2022-10-08T03:01:26.534Z,100572.41
2022-10-08T03:04:00.219Z,100575.03
2022-10-08T03:06:28.477Z,100568.91
2022-10-08T03:08:58.994Z,100572.47
2022-10-08T03:11:27.361Z,100574.19
2022-10-08T03:13:58.263Z,100574.19
2022-10-08T03:16:32.181Z,100568.94
2022-10-08T03:19:02.615Z,100573.34
2022-10-08T03:21:30.402Z,100569.84
2022-10-08T03:23:56.974Z,100564.56
2022-10-08T03:26:23.479Z,100566.34
2022-10-08T03:28:52.472Z,100560.16
2022-10-08T03:31:19.316Z,100570.72
2022-10-08T03:33:53.321Z,100558.41
2022-10-08T03:36:21.600Z,100566.34
2022-10-08T03:38:49.192Z,100569.88
2022-10-08T03:41:16.781Z,100564.63
2022-10-08T03:43:43.982Z,100554.97
2022-10-08T03:46:12.297Z,100555.00
2022-10-08T03:48:39.955Z,100556.84
2022-10-08T03:51:10.825Z,100558.63
2022-10-08T03:53:39.343Z,100563.94
2022-10-08T03:56:08.904Z,100544.59
2022-10-08T03:58:35.694Z,100551.63
2022-10-08T04:01:05.338Z,100553.47
2022-10-08T04:03:32.723Z,100552.72
2022-10-08T04:05:59.575Z,100551.94
2022-10-08T04:08:26.321Z,100542.28
2022-10-08T04:10:53.628Z,100548.47
2022-10-08T04:13:20.516Z,100540.53
2022-10-08T04:15:48.276Z,100547.56
2022-10-08T04:18:15.065Z,100545.84
2022-10-08T04:20:42.224Z,100548.50
2022-10-08T04:23:09.985Z,100553.81
2022-10-08T04:25:37.089Z,100551.19
2022-10-08T04:28:04.977Z,100552.06
2022-10-08T04:30:32.525Z,100550.38
2022-10-08T04:32:59.113Z,100562.00
2022-10-08T04:35:26.216Z,100563.09
2022-10-08T04:37:52.983Z,100567.66
2022-10-08T04:40:19.537Z,100553.63
2022-10-08T04:42:50.884Z,100565.97
2022-10-08T04:45:17.575Z,100566.84
2022-10-08T04:47:44.165Z,100573.03
2022-10-08T04:50:10.703Z,100568.75
2022-10-08T04:52:37.269Z,100568.03
2022-10-08T04:55:04.594Z,100574.34
2022-10-08T04:57:31.713Z,100569.19
2022-10-08T05:00:17.784Z,100565.03
2022-10-08T05:02:45.690Z,100577.53
2022-10-08T05:05:12.562Z,100574.09
2022-10-08T05:07:39.098Z,100577.75
2022-10-08T05:10:06.147Z,100576.06
2022-10-08T05:12:32.714Z,100580.53
2022-10-08T05:14:59.358Z,100579.69
2022-10-08T05:17:25.912Z,100584.19
2022-10-08T05:19:52.818Z,100579.91
2022-10-08T05:22:19.304Z,100586.16
2022-10-08T05:24:45.881Z,100583.59
2022-10-08T05:27:12.458Z,100586.34
2022-10-08T05:29:38.989Z,100596.97
2022-10-08T05:32:05.546Z,100594.38
2022-10-08T05:34:32.071Z,100592.66
2022-10-08T05:36:58.607Z,100586.53
2022-10-08T05:39:25.239Z,100582.97
2022-10-08T05:41:53.296Z,100581.19
2022-10-08T05:44:20.354Z,100583.81
2022-10-08T05:46:46.948Z,100589.97
2022-10-08T05:49:20.321Z,100587.25
2022-10-08T05:51:47.945Z,100592.47
2022-10-08T05:54:14.622Z,100598.59
2022-10-08T05:56:41.240Z,100595.03
2022-10-08T05:59:17.077Z,100602.13
2022-10-08T06:01:44.056Z,100601.31
2022-10-08T06:04:11.349Z,100601.34
2022-10-08T06:06:40.268Z,100623.44
2022-10-08T06:09:08.650Z,100612.00
2022-10-08T06:11:36.889Z,100608.47
2022-10-08T06:14:06.054Z,100624.31
2022-10-08T06:16:33.477Z,100619.88
2022-10-08T06:19:02.169Z,100628.84
2022-10-08T06:21:29.552Z,100628.94
2022-10-08T06:23:58.452Z,100638.72
2022-10-08T06:26:32.946Z,100628.19
2022-10-08T06:29:01.896Z,100631.78
2022-10-08T06:31:28.573Z,100640.63
2022-10-08T06:33:58.561Z,100641.53
2022-10-08T06:36:27.168Z,100653.06
2022-10-08T06:39:00.823Z,100654.81
2022-10-08T06:41:30.473Z,100655.72
2022-10-08T06:43:57.348Z,100654.88
2022-10-08T06:46:24.467Z,100658.38
2022-10-08T06:48:51.119Z,100661.94
2022-10-08T06:51:18.868Z,100662.84
2022-10-08T06:53:51.450Z,100668.16
2022-10-08T06:56:18.143Z,100668.16
2022-10-08T06:58:45.333Z,100670.84
2022-10-08T07:01:19.618Z,100668.22
2022-10-08T07:04:06.660Z,100663.88
2022-10-08T07:06:33.356Z,100663.88
2022-10-08T07:09:01.456Z,100667.44
2022-10-08T07:11:28.701Z,100679.81
2022-10-08T07:13:56.295Z,100677.16
2022-10-08T07:16:24.828Z,100663.06
2022-10-08T07:18:52.995Z,100665.72
2022-10-08T07:21:21.976Z,100667.50
2022-10-08T07:23:49.704Z,100672.84
2022-10-08T07:26:26.632Z,100695.88
2022-10-08T07:28:59.213Z,100694.19
2022-10-08T07:31:29.841Z,100695.13
2022-10-08T07:34:01.218Z,100701.41
2022-10-08T07:36:28.894Z,100688.22
2022-10-08T07:38:57.126Z,100681.25
2022-10-08T07:41:24.945Z,100697.22
2022-10-08T07:43:53.690Z,100698.16
2022-10-08T07:46:20.950Z,100706.16
2022-10-08T07:48:47.583Z,100702.66
2022-10-08T07:51:17.426Z,100704.47
2022-10-08T07:53:44.845Z,100714.25
2022-10-08T07:56:14.484Z,100721.34
2022-10-08T07:58:42.074Z,100725.78
2022-10-08T08:01:12.251Z,100730.22
2022-10-08T08:03:38.820Z,100726.72
2022-10-08T08:06:12.159Z,100734.69
2022-10-08T08:08:40.892Z,100750.56
2022-10-08T08:11:10.002Z,100745.25
2022-10-08T08:13:37.951Z,100750.56
2022-10-08T08:16:08.322Z,100750.63
2022-10-08T08:18:37.774Z,100748.88
2022-10-08T08:21:10.000Z,100756.00
2022-10-08T08:23:40.121Z,100752.53
2022-10-08T08:26:18.846Z,100758.78
2022-10-08T08:28:45.548Z,100768.56
2022-10-08T08:31:15.319Z,100776.53
2022-10-08T08:33:43.181Z,100774.78
2022-10-08T08:36:09.941Z,100781.84
2022-10-08T08:38:39.953Z,100780.09
2022-10-08T08:41:19.785Z,100781.88
2022-10-08T08:43:47.924Z,100781.88
2022-10-08T08:46:19.998Z,100785.44
2022-10-08T08:48:46.888Z,100797.84
2022-10-08T08:51:13.610Z,100796.94
2022-10-08T08:53:40.211Z,100798.72
2022-10-08T08:56:12.553Z,100796.97
2022-10-08T08:58:58.530Z,100804.97
2022-10-08T09:01:33.552Z,100806.75
2022-10-08T09:04:26.588Z,100812.06
2022-10-08T09:06:56.333Z,100814.78
2022-10-08T09:09:31.298Z,100824.44
2022-10-08T09:11:58.299Z,100823.59
2022-10-08T09:14:37.064Z,100828.97
2022-10-08T09:17:28.277Z,100829.81
2022-10-08T09:19:55.358Z,100827.97
2022-10-08T09:22:25.771Z,100826.16
2022-10-08T09:25:06.444Z,100844.75
2022-10-08T09:28:09.227Z,100854.59
2022-10-08T09:30:45.036Z,100850.28
2022-10-08T09:33:18.613Z,100848.59
2022-10-08T09:35:48.930Z,100847.75
2022-10-08T09:38:21.545Z,100847.78
2022-10-08T09:41:17.458Z,100851.44
2022-10-08T09:43:45.623Z,100858.53
2022-10-08T09:46:29.854Z,100847.03
2022-10-08T09:48:56.609Z,100859.47
2022-10-08T09:51:23.695Z,100857.69
2022-10-08T09:53:54.745Z,100863.03
2022-10-08T09:56:27.643Z,100863.94
2022-10-08T09:58:58.418Z,100864.78
2022-10-08T10:01:25.690Z,100866.56
2022-10-08T10:03:57.841Z,100877.25
2022-10-08T10:06:27.194Z,100876.34
2022-10-08T10:09:18.866Z,100878.13
2022-10-08T10:11:59.169Z,100872.78
2022-10-08T10:14:33.268Z,100872.78
2022-10-08T10:17:10.441Z,100870.97
2022-10-08T10:19:46.120Z,100866.56
2022-10-08T10:22:19.292Z,100878.09
2022-10-08T10:25:09.500Z,100876.34
2022-10-08T10:27:42.257Z,100886.09
2022-10-08T10:30:18.654Z,100881.66
2022-10-08T10:33:12.972Z,100871.91
2022-10-08T10:35:50.025Z,100864.81
2022-10-08T10:38:24.019Z,100861.22
2022-10-08T10:41:11.989Z,100868.34
2022-10-08T10:43:53.629Z,100864.78
2022-10-08T10:46:32.381Z,100868.34
2022-10-08T10:49:00.089Z,100869.22
2022-10-08T10:51:56.101Z,100869.19
2022-10-08T10:54:37.901Z,100863.88
2022-10-08T10:57:36.868Z,100862.00
2022-10-08T11:00:09.775Z,100858.44
2022-10-08T11:02:59.463Z,100860.16
2022-10-08T11:05:30.314Z,100853.88
2022-10-08T11:08:11.850Z,100859.06
2022-10-08T11:11:00.767Z,100860.03
2022-10-08T11:13:30.173Z,100854.75
2022-10-08T11:16:04.914Z,100844.97
2022-10-08T11:18:49.430Z,100847.53
2022-10-08T11:21:21.927Z,100843.03
2022-10-08T11:24:00.670Z,100854.59
2022-10-08T11:26:37.141Z,100855.50
2022-10-08T11:29:17.526Z,100849.25
2022-10-08T11:31:51.826Z,100853.63
2022-10-08T11:34:34.409Z,100834.78
2022-10-08T11:37:29.341Z,100833.84
2022-10-08T11:40:23.954Z,100842.00
2022-10-08T11:43:07.165Z,100844.75
2022-10-08T11:45:36.712Z,100839.44
2022-10-08T11:48:29.534Z,100844.78
2022-10-08T11:51:18.837Z,100844.78
2022-10-08T11:54:04.284Z,100834.06
2022-10-08T11:56:34.730Z,100838.41
2022-10-08T11:59:10.270Z,100839.09
2022-10-08T12:02:05.641Z,100831.94
2022-10-08T12:04:36.233Z,100803.50
2022-10-08T12:07:24.433Z,100821.28
2022-10-08T12:10:31.477Z,100821.16
2022-10-08T12:13:02.709Z,100821.22
2022-10-08T12:15:33.135Z,100824.00
2022-10-08T12:18:26.253Z,100832.97
2022-10-08T12:21:20.365Z,100833.75
2022-10-08T12:23:47.117Z,100851.38
2022-10-08T12:26:15.750Z,100852.13
2022-10-08T12:28:45.257Z,100871.84
2022-10-08T12:31:30.911Z,100920.31
2022-10-08T12:34:14.220Z,100886.75
2022-10-08T12:36:46.916Z,100895.84
2022-10-08T12:39:36.131Z,100917.22
2022-10-08T12:42:14.636Z,100888.75
2022-10-08T12:44:57.060Z,100900.19
2022-10-08T12:48:08.907Z,100919.47
2022-10-08T12:51:05.061Z,100935.28
2022-10-08T12:53:33.095Z,100944.09
2022-10-08T12:56:00.136Z,100935.13
2022-10-08T12:58:31.738Z,100935.00
2022-10-08T13:01:04.351Z,100927.88
2022-10-08T13:03:31.203Z,100914.66
2022-10-08T13:05:57.959Z,100920.06
2022-10-08T13:08:35.191Z,100923.78
2022-10-08T13:11:13.475Z,100923.84
2022-10-08T13:13:40.052Z,100920.38
2022-10-08T13:16:12.275Z,100927.47
2022-10-08T13:18:44.498Z,100925.66
2022-10-08T13:21:32.130Z,100940.72
2022-10-08T13:24:20.503Z,100938.09
2022-10-08T13:26:50.082Z,100939.03
2022-10-08T13:29:22.669Z,100944.41
2022-10-08T13:32:14.063Z,100932.00
2022-10-08T13:34:40.571Z,100929.34
2022-10-08T13:37:22.385Z,100930.25
2022-10-08T13:39:54.901Z,100933.81
2022-10-08T13:42:26.090Z,100934.72
2022-10-08T13:44:52.920Z,100936.50
2022-10-08T13:47:22.667Z,100933.06
2022-10-08T13:49:49.674Z,100935.72
2022-10-08T13:52:22.538Z,100927.72
2022-10-08T13:54:53.750Z,100932.19
2022-10-08T13:57:20.400Z,100932.19
2022-10-08T13:59:47.138Z,100942.88
2022-10-08T14:02:14.536Z,100946.41
2022-10-08T14:04:41.516Z,100947.28
2022-10-08T14:07:22.652Z,100950.81
2022-10-08T14:09:49.527Z,100956.09
2022-10-08T14:12:17.318Z,100951.66
2022-10-08T14:14:43.821Z,100948.09
2022-10-08T14:17:10.318Z,100957.81
2022-10-08T14:19:36.903Z,100958.69
2022-10-08T14:22:03.398Z,100962.25
2022-10-08T14:24:29.908Z,100969.44
2022-10-08T14:26:56.544Z,100968.56
2022-10-08T14:29:23.115Z,100974.81
2022-10-08T14:31:49.918Z,100976.56
2022-10-08T14:34:16.597Z,100967.72
2022-10-08T14:36:43.464Z,100970.34
2022-10-08T14:39:10.366Z,100978.34
2022-10-08T14:41:37.352Z,100979.22
2022-10-08T14:44:03.930Z,100988.13
2022-10-08T14:46:30.589Z,100983.69
2022-10-08T14:48:57.562Z,100991.72
2022-10-08T14:51:24.304Z,100989.97
2022-10-08T14:53:52.212Z,100981.06
2022-10-08T14:56:18.865Z,100991.69
2022-10-08T14:58:45.432Z,100983.69
2022-10-08T15:01:12.163Z,100988.13
2022-10-08T15:03:38.802Z,100986.28
2022-10-08T15:06:05.469Z,100984.47
2022-10-08T15:08:32.126Z,100988.88
2022-10-08T15:11:01.736Z,100995.03
2022-10-08T15:13:29.018Z,100993.25
2022-10-08T15:15:55.564Z,101004.75
2022-10-08T15:18:22.016Z,101003.78
2022-10-08T15:21:00.399Z,101009.09
2022-10-08T15:23:27.615Z,101009.97
2022-10-08T15:25:59.632Z,101014.38
2022-10-08T15:28:27.942Z,101017.88
2022-10-08T15:31:14.616Z,101019.56
2022-10-08T15:33:49.393Z,101022.22
2022-10-08T15:36:27.663Z,101023.94
2022-10-08T15:38:59.868Z,101022.16
2022-10-08T15:41:28.287Z,101035.38
2022-10-08T15:43:54.843Z,101029.16
2022-10-08T15:46:22.822Z,101036.25
2022-10-08T15:48:54.948Z,101037.13
2022-10-08T15:51:23.072Z,101035.28
2022-10-08T15:53:50.333Z,101045.00
2022-10-08T15:56:16.941Z,101052.06
2022-10-08T15:58:50.964Z,101054.72
2022-10-08T16:01:20.763Z,101064.41
2022-10-08T16:03:49.414Z,101059.94
2022-10-08T16:06:28.484Z,101065.25
2022-10-08T16:08:58.269Z,101073.16
2022-10-08T16:11:30.448Z,101069.59
2022-10-08T16:14:06.505Z,101081.03
2022-10-08T16:16:33.174Z,101077.50
2022-10-08T16:19:04.137Z,101095.19
2022-10-08T16:21:33.231Z,101089.81
2022-10-08T16:24:00.845Z,101101.22
2022-10-08T16:26:31.633Z,101089.66
2022-10-08T16:29:00.586Z,101100.25
2022-10-08T16:31:29.283Z,101105.47
2022-10-08T16:33:58.039Z,101106.31
2022-10-08T16:36:25.490Z,101101.81
2022-10-08T16:38:52.502Z,101105.28
2022-10-08T16:41:30.633Z,101114.09
2022-10-08T16:43:59.869Z,101120.22
2022-10-08T16:46:36.113Z,101130.75
2022-10-08T16:49:06.446Z,101128.91
2022-10-08T16:51:36.527Z,101119.97
2022-10-08T16:54:06.460Z,101134.97
2022-10-08T16:56:35.969Z,101133.13
2022-10-08T16:59:08.016Z,101140.16
2022-10-08T17:01:36.306Z,101142.72
2022-10-08T17:04:05.680Z,101144.38
2022-10-08T17:06:32.798Z,101154.03
2022-10-08T17:09:08.901Z,101151.25
2022-10-08T17:11:36.904Z,101146.75
2022-10-08T17:14:04.221Z,101157.28
2022-10-08T17:16:31.535Z,101165.22
2022-10-08T17:19:00.068Z,101172.25
2022-10-08T17:21:28.509Z,101173.09
2022-10-08T17:23:57.592Z,101173.88
2022-10-08T17:26:26.074Z,101179.09
2022-10-08T17:28:52.784Z,101194.06
2022-10-08T17:31:22.682Z,101187.81
2022-10-08T17:33:50.036Z,101195.72
2022-10-08T17:36:22.573Z,101202.75
2022-10-08T17:38:51.651Z,101206.16
2022-10-08T17:41:20.657Z,101208.72
2022-10-08T17:43:48.442Z,101218.38
2022-10-08T17:46:17.738Z,101212.06
2022-10-08T17:48:45.329Z,101221.72
2022-10-08T17:51:14.332Z,101230.44
2022-10-08T17:53:42.709Z,101237.41
2022-10-08T17:56:11.668Z,101237.31
2022-10-08T17:58:38.960Z,101238.09
2022-10-08T18:01:07.185Z,101237.13
2022-10-08T18:03:34.348Z,101251.16
2022-10-08T18:06:02.368Z,101258.19
2022-10-08T18:08:29.228Z,101248.41
2022-10-08T18:10:57.004Z,101260.72
2022-10-08T18:13:23.596Z,101258.03
2022-10-08T18:15:50.182Z,101260.66
2022-10-08T18:18:16.993Z,101265.00
2022-10-08T18:20:56.598Z,101277.28
2022-10-08T18:23:24.138Z,101276.38
2022-10-08T18:25:53.921Z,101278.97
2022-10-08T18:28:21.907Z,101289.41
2022-10-08T18:30:48.714Z,101287.56
2022-10-08T18:33:15.985Z,101291.81
2022-10-08T18:35:42.475Z,101291.78
2022-10-08T18:38:08.954Z,101291.72
2022-10-08T18:40:35.672Z,101294.25
2022-10-08T18:43:02.313Z,101304.78
2022-10-08T18:45:29.132Z,101298.50
2022-10-08T18:47:55.706Z,101301.94
2022-10-08T18:50:22.484Z,101309.91
2022-10-08T18:52:49.507Z,101309.84
2022-10-08T18:55:16.665Z,101315.13
2022-10-08T18:57:43.455Z,101312.41
2022-10-08T19:00:10.446Z,101321.19
2022-10-08T19:02:37.270Z,101317.59
2022-10-08T19:05:04.332Z,101318.44
2022-10-08T19:07:30.993Z,101327.97
2022-10-08T19:09:57.571Z,101325.28
2022-10-08T19:12:24.462Z,101333.16
2022-10-08T19:14:53.111Z,101333.97
2022-10-08T19:17:20.019Z,101340.94
2022-10-08T19:19:46.531Z,101335.56
2022-10-08T19:22:13.044Z,101345.16
2022-10-08T19:24:41.151Z,101352.94
2022-10-08T19:27:08.501Z,101350.16
2022-10-08T19:29:35.969Z,101358.00
2022-10-08T19:32:03.167Z,101350.81
2022-10-08T19:34:29.783Z,101359.56
2022-10-08T19:36:56.765Z,101362.06
2022-10-08T19:39:26.043Z,101366.38
2022-10-08T19:41:53.101Z,101366.34
2022-10-08T19:44:28.272Z,101368.88
2022-10-08T19:46:55.029Z,101374.94
2022-10-08T19:49:22.181Z,101379.31
2022-10-08T19:51:48.765Z,101380.16
2022-10-08T19:54:16.499Z,101379.19
2022-10-08T19:56:43.053Z,101381.66
2022-10-08T19:59:11.606Z,101384.19
2022-10-08T20:01:39.284Z,101388.50
2022-10-08T20:04:07.408Z,101398.09
2022-10-08T20:06:38.533Z,101393.56
2022-10-08T20:09:07.281Z,101398.72
2022-10-08T20:11:33.961Z,101407.47
2022-10-08T20:14:01.841Z,101405.59
2022-10-08T20:16:34.310Z,101406.34
2022-10-08T20:19:03.543Z,101405.38
2022-10-08T20:21:37.251Z,101411.53
2022-10-08T20:24:04.624Z,101413.19
2022-10-08T20:26:33.078Z,101418.44
2022-10-08T20:29:02.622Z,101412.19
2022-10-08T20:31:32.477Z,101410.31
2022-10-08T20:34:00.142Z,101415.50
2022-10-08T20:36:27.478Z,101413.59
2022-10-08T20:38:54.227Z,101424.09
2022-10-08T20:41:21.119Z,101422.22
2022-10-08T20:43:48.173Z,101422.09
2022-10-08T20:46:15.909Z,101425.47
2022-10-08T20:48:44.100Z,101429.81
2022-10-08T20:51:13.852Z,101431.47
2022-10-08T20:53:45.717Z,101429.56
2022-10-08T20:56:12.683Z,101432.13
2022-10-08T20:58:39.636Z,101435.50
2022-10-08T21:01:28.423Z,101423.09
2022-10-08T21:03:55.535Z,101438.81
2022-10-08T21:06:36.794Z,101431.66
2022-10-08T21:09:03.565Z,101446.53
2022-10-08T21:11:31.108Z,101441.16
2022-10-08T21:14:00.033Z,101438.44
2022-10-08T21:16:32.678Z,101444.50
2022-10-08T21:19:01.709Z,101447.91
2022-10-08T21:21:29.809Z,101450.44
2022-10-08T21:23:57.248Z,101453.91
2022-10-08T21:26:29.030Z,101457.31
2022-10-08T21:29:00.902Z,101453.72
2022-10-08T21:31:30.557Z,101454.50
2022-10-08T21:33:58.479Z,101461.50
2022-10-08T21:36:29.352Z,101457.91
2022-10-08T21:38:56.520Z,101459.59
2022-10-08T21:41:24.695Z,101468.28
2022-10-08T21:43:53.648Z,101470.81
2022-10-08T21:46:26.372Z,101469.00
2022-10-08T21:48:59.940Z,101466.28
2022-10-08T21:51:27.496Z,101469.69
2022-10-08T21:53:56.651Z,101463.41
2022-10-08T21:56:25.467Z,101474.88
2022-10-08T21:58:54.285Z,101473.91
2022-10-08T22:01:23.806Z,101481.78
2022-10-08T22:03:58.805Z,101479.84
2022-10-08T22:06:26.876Z,101486.81
2022-10-08T22:08:53.685Z,101484.97
2022-10-08T22:11:20.834Z,101482.28
2022-10-08T22:13:47.561Z,101492.75
2022-10-08T22:16:15.936Z,101487.44
2022-10-08T22:18:42.552Z,101490.88
2022-10-08T22:21:14.858Z,101495.19
2022-10-08T22:23:41.591Z,101502.09
2022-10-08T22:26:11.792Z,101499.38
2022-10-08T22:28:39.044Z,101501.03
2022-10-08T22:31:08.320Z,101504.44
2022-10-08T22:33:36.044Z,101516.66
2022-10-08T22:36:14.163Z,101506.94
2022-10-08T22:38:42.253Z,101506.03
2022-10-08T22:41:11.963Z,101512.06
2022-10-08T22:43:39.809Z,101509.38
2022-10-08T22:46:10.070Z,101512.78
2022-10-08T22:48:37.366Z,101507.47
2022-10-08T22:51:10.969Z,101505.63
2022-10-08T22:53:37.591Z,101510.91
2022-10-08T22:56:06.459Z,101511.66
2022-10-08T22:58:34.755Z,101508.00
2022-10-08T23:01:05.563Z,101509.69
2022-10-08T23:03:32.545Z,101507.00
2022-10-08T23:06:17.873Z,101506.03
2022-10-08T23:08:45.816Z,101511.25
2022-10-08T23:11:13.219Z,101511.22
2022-10-08T23:13:40.103Z,101519.88
2022-10-08T23:16:11.506Z,101519.81
2022-10-08T23:18:40.057Z,101518.84
2022-10-08T23:21:15.942Z,101521.38
2022-10-08T23:23:46.619Z,101523.06
2022-10-08T23:26:14.344Z,101526.50
2022-10-08T23:28:41.794Z,101525.59
2022-10-08T23:31:10.115Z,101535.16
2022-10-08T23:33:42.345Z,101530.69
2022-10-08T23:36:10.949Z,101531.56
2022-10-08T23:38:38.100Z,101535.84
2022-10-08T23:41:07.357Z,101541.00
2022-10-08T23:43:36.278Z,101545.38
2022-10-08T23:46:04.622Z,101538.22
2022-10-08T23:48:31.444Z,101542.53
2022-10-08T23:50:58.051Z,101546.84
2022-10-08T23:53:25.239Z,101542.38
2022-10-08T23:55:51.868Z,101543.13
2022-10-08T23:58:18.649Z,101543.97
